createdAt,value
2018-02-18T00:00:40.092Z,48.27
2018-02-18T00:03:07.663Z,46.33
2018-02-18T00:05:35.206Z,49.67
2018-02-18T00:08:02.777Z,35.23
2018-02-18T00:10:30.319Z,37.70
2018-02-18T00:12:57.883Z,46.22
2018-02-18T00:15:25.417Z,44.07
2018-02-18T00:17:53.743Z,35.90
2018-02-18T00:20:21.281Z,43.63
2018-02-18T00:22:48.853Z,39.97
2018-02-18T00:25:16.400Z,38.97
2018-02-18T00:27:43.969Z,40.95
2018-02-18T00:30:11.510Z,38.92
2018-02-18T00:32:39.071Z,33.10
2018-02-18T00:35:06.626Z,33.45
2018-02-18T00:37:34.197Z,38.63
2018-02-18T00:40:01.730Z,43.30
2018-02-18T00:42:30.063Z,49.80
2018-02-18T00:44:57.610Z,48.75
2018-02-18T00:47:25.177Z,52.13
2018-02-18T00:49:53.493Z,49.60
2018-02-18T00:52:21.828Z,47.53
2018-02-18T00:54:49.367Z,50.53
2018-02-18T00:57:16.934Z,39.90
2018-02-18T00:59:44.489Z,47.45
2018-02-18T01:02:12.061Z,55.25
2018-02-18T01:04:39.602Z,38.15
2018-02-18T01:07:07.166Z,35.25
2018-02-18T01:09:34.703Z,48.30
2018-02-18T01:12:03.030Z,45.25
2018-02-18T01:14:30.566Z,45.22
2018-02-18T01:16:58.122Z,40.80
2018-02-18T01:19:25.659Z,45.42
2018-02-18T01:21:54.000Z,45.17
2018-02-18T01:24:21.548Z,38.75
2018-02-18T01:26:49.114Z,40.63
2018-02-18T01:29:16.659Z,33.03
2018-02-18T01:31:44.226Z,36.13
2018-02-18T01:34:11.772Z,37.75
2018-02-18T01:36:39.337Z,40.63
2018-02-18T01:39:06.875Z,41.25
2018-02-18T01:41:34.443Z,44.97
2018-02-18T01:44:01.987Z,40.12
2018-02-18T01:46:29.561Z,44.00
2018-02-18T01:48:57.110Z,40.92
2018-02-18T01:51:24.674Z,43.35
2018-02-18T01:53:52.215Z,44.60
2018-02-18T01:56:20.551Z,41.75
2018-02-18T01:58:48.088Z,61.15
2018-02-18T02:01:15.652Z,56.22
2018-02-18T02:03:43.195Z,64.97
2018-02-18T02:06:10.734Z,57.80
2018-02-18T02:08:39.075Z,70.20
2018-02-18T02:11:06.619Z,68.28
2018-02-18T02:13:34.178Z,53.92
2018-02-18T02:16:01.713Z,57.83
2018-02-18T02:18:29.279Z,52.70
2018-02-18T02:20:56.825Z,59.33
2018-02-18T02:23:24.390Z,58.80
2018-02-18T02:25:51.930Z,61.17
2018-02-18T02:28:20.263Z,58.50
2018-02-18T02:30:47.807Z,65.05
2018-02-18T02:33:15.378Z,67.30
2018-02-18T02:35:42.920Z,62.40
2018-02-18T02:38:10.488Z,59.15
2018-02-18T02:40:38.030Z,67.35
2018-02-18T02:43:05.591Z,57.17
2018-02-18T02:45:33.143Z,66.85
2018-02-18T02:48:00.702Z,63.25
2018-02-18T02:50:28.243Z,68.15
2018-02-18T02:52:56.577Z,64.45
2018-02-18T02:55:24.124Z,66.28
2018-02-18T02:57:51.690Z,51.72
2018-02-18T03:00:19.241Z,59.60
2018-02-18T03:02:46.803Z,63.75
2018-02-18T03:05:14.345Z,65.43
2018-02-18T03:07:41.910Z,58.15
2018-02-18T03:10:09.464Z,46.53
2018-02-18T03:12:37.041Z,54.50
2018-02-18T03:15:04.582Z,55.45
2018-02-18T03:17:32.146Z,52.75
2018-02-18T03:19:59.686Z,56.92
2018-02-18T03:22:28.015Z,50.03
2018-02-18T03:24:55.546Z,59.03
2018-02-18T03:27:23.117Z,44.13
2018-02-18T03:29:50.658Z,47.50
2018-02-18T03:32:18.223Z,68.07
2018-02-18T03:34:45.763Z,52.92
2018-02-18T03:37:14.098Z,55.95
2018-02-18T03:39:43.150Z,48.72
2018-02-18T03:42:10.718Z,60.03
2018-02-18T03:44:38.262Z,59.03
2018-02-18T03:47:05.834Z,50.20
2018-02-18T03:49:33.380Z,56.35
2018-02-18T03:52:00.945Z,52.62
2018-02-18T03:54:28.487Z,54.35
2018-02-18T03:56:56.822Z,57.45
2018-02-18T03:59:24.368Z,61.47
2018-02-18T04:01:51.944Z,57.60
2018-02-18T04:04:19.477Z,60.03
2018-02-18T04:06:47.041Z,72.53
2018-02-18T04:09:14.582Z,62.40
2018-02-18T04:11:42.115Z,55.92
2018-02-18T04:14:10.442Z,66.75
2018-02-18T04:16:37.987Z,62.15
2018-02-18T04:19:05.550Z,60.15
2018-02-18T04:21:33.090Z,61.40
2018-02-18T04:24:00.655Z,70.37
2018-02-18T04:26:28.191Z,64.60
2018-02-18T04:28:56.531Z,67.40
2018-02-18T04:31:24.073Z,66.97
2018-02-18T04:33:51.639Z,69.25
2018-02-18T04:36:19.175Z,80.85
2018-02-18T04:38:46.729Z,74.78
2018-02-18T04:41:14.267Z,59.50
2018-02-18T04:43:42.602Z,63.60
2018-02-18T04:46:10.139Z,60.88
2018-02-18T04:48:37.703Z,69.43
2018-02-18T04:51:05.238Z,57.55
2018-02-18T04:53:33.567Z,56.35
2018-02-18T04:56:01.115Z,59.72
2018-02-18T04:58:28.678Z,58.80
2018-02-18T05:00:56.227Z,48.70
2018-02-18T05:03:23.794Z,59.38
2018-02-18T05:05:51.333Z,55.12
2018-02-18T05:08:18.907Z,49.70
2018-02-18T05:10:46.963Z,48.40
2018-02-18T05:13:14.529Z,46.40
2018-02-18T05:15:42.074Z,50.75
2018-02-18T05:18:09.634Z,47.00
2018-02-18T05:20:37.177Z,67.45
2018-02-18T05:23:05.508Z,53.33
2018-02-18T05:25:33.058Z,49.22
2018-02-18T05:28:00.619Z,49.88
2018-02-18T05:30:28.150Z,49.83
2018-02-18T05:32:55.721Z,50.17
2018-02-18T05:35:23.267Z,44.05
2018-02-18T05:37:50.827Z,47.78
2018-02-18T05:40:18.368Z,49.10
2018-02-18T05:42:45.940Z,44.58
2018-02-18T05:45:14.247Z,39.20
2018-02-18T05:47:41.816Z,49.60
2018-02-18T05:50:09.352Z,53.83
2018-02-18T05:52:36.927Z,51.25
2018-02-18T05:55:04.466Z,46.67
2018-02-18T05:57:32.035Z,42.50
2018-02-18T05:59:59.579Z,37.75
2018-02-18T06:02:27.153Z,42.75
2018-02-18T06:04:54.695Z,36.40
2018-02-18T06:07:23.030Z,35.17
2018-02-18T06:09:50.572Z,42.05
2018-02-18T06:12:18.115Z,38.38
2018-02-18T06:14:45.694Z,34.70
2018-02-18T06:17:13.237Z,32.45
2018-02-18T06:19:40.802Z,38.97
2018-02-18T06:22:08.903Z,39.70
2018-02-18T06:24:37.244Z,36.60
2018-02-18T06:27:04.784Z,41.17
2018-02-18T06:29:33.119Z,38.47
2018-02-18T06:32:00.659Z,40.72
2018-02-18T06:53:58.371Z,33.22
2018-02-18T06:56:25.911Z,40.42
2018-02-18T06:58:53.478Z,34.78
2018-02-18T07:01:21.017Z,46.28
2018-02-18T07:03:48.600Z,49.85
2018-02-18T07:06:16.141Z,44.45
2018-02-18T07:08:43.698Z,45.45
2018-02-18T07:11:11.235Z,40.08
2018-02-18T07:13:39.567Z,38.85
2018-02-18T07:16:07.107Z,44.30
2018-02-18T07:18:34.665Z,34.85
2018-02-18T07:21:02.211Z,40.45
2018-02-18T07:23:29.782Z,35.97
2018-02-18T07:25:57.322Z,49.22
2018-02-18T07:28:24.890Z,48.67
2018-02-18T07:30:52.430Z,48.80
2018-02-18T07:33:20.758Z,38.45
2018-02-18T07:35:48.296Z,50.12
2018-02-18T07:38:15.859Z,45.42
2018-02-18T07:40:43.399Z,47.97
2018-02-18T07:43:10.963Z,41.90
2018-02-18T07:45:38.510Z,40.67
2018-02-18T07:48:06.837Z,40.23
2018-02-18T07:50:34.380Z,40.28
2018-02-18T07:53:01.947Z,39.67
2018-02-18T07:55:29.499Z,38.40
2018-02-18T07:57:57.143Z,48.17
2018-02-18T08:00:24.690Z,42.30
2018-02-18T08:02:52.253Z,44.92
2018-02-18T08:05:19.802Z,38.37
2018-02-18T08:07:48.145Z,41.95
2018-02-18T08:10:15.699Z,44.88
2018-02-18T08:12:43.243Z,52.58
2018-02-18T08:15:10.818Z,53.17
2018-02-18T08:17:38.422Z,51.67
2018-02-18T08:20:05.955Z,53.90
2018-02-18T08:22:33.512Z,64.22
2018-02-18T08:25:01.078Z,63.27
2018-02-18T08:27:28.630Z,64.05
2018-02-18T08:29:56.198Z,73.60
2018-02-18T08:32:23.737Z,74.33
2018-02-18T08:34:51.311Z,74.10
2018-02-18T08:37:18.859Z,63.42
2018-02-18T08:39:46.429Z,56.88
2018-02-18T08:42:13.961Z,63.57
2018-02-18T08:44:41.526Z,60.80
2018-02-18T08:47:10.102Z,64.40
2018-02-18T08:49:37.671Z,53.38
2018-02-18T08:52:05.221Z,65.75
2018-02-18T08:54:32.788Z,68.07
2018-02-18T08:57:00.334Z,60.03
2018-02-18T08:59:27.895Z,74.90
2018-02-18T09:01:55.452Z,71.72
2018-02-18T09:04:23.016Z,62.70
2018-02-18T09:06:50.550Z,61.83
2018-02-18T09:09:18.878Z,67.20
2018-02-18T09:11:46.421Z,78.50
2018-02-18T09:14:14.218Z,77.13
2018-02-18T09:16:41.971Z,79.53
2018-02-18T09:19:09.534Z,75.27
2018-02-18T09:21:37.071Z,78.67
2018-02-18T09:24:04.795Z,77.07
2018-02-18T09:26:32.383Z,82.47
2018-02-18T09:28:59.939Z,94.33
2018-02-18T09:31:27.491Z,84.25
2018-02-18T09:33:55.050Z,96.10
2018-02-18T09:36:22.583Z,88.53
2018-02-18T09:38:50.912Z,82.60
2018-02-18T09:41:18.451Z,80.00
2018-02-18T09:43:46.049Z,71.57
2018-02-18T09:46:13.595Z,70.57
2018-02-18T09:48:41.151Z,62.70
2018-02-18T09:51:08.719Z,59.67
2018-02-18T09:53:36.288Z,67.20
2018-02-18T09:56:03.822Z,62.13
2018-02-18T09:58:31.379Z,59.30
2018-02-18T10:00:58.906Z,72.60
2018-02-18T10:03:27.264Z,66.90
2018-02-18T10:05:54.802Z,63.80
2018-02-18T10:08:22.414Z,63.10
2018-02-18T10:10:50.712Z,69.10
2018-02-18T10:13:18.390Z,58.93
2018-02-18T10:15:45.929Z,58.93
2018-02-18T10:18:13.487Z,50.67
2018-02-18T10:20:41.043Z,56.97
2018-02-18T10:23:08.583Z,45.80
2018-02-18T10:25:36.912Z,46.50
2018-02-18T10:28:04.496Z,49.90
2018-02-18T10:30:32.077Z,50.23
2018-02-18T10:33:00.391Z,56.90
2018-02-18T10:35:27.960Z,46.53
2018-02-18T10:37:55.757Z,47.77
2018-02-18T10:40:26.691Z,51.90
2018-02-18T10:42:54.252Z,43.53
2018-02-18T10:45:21.962Z,48.50
2018-02-18T10:47:50.278Z,48.87
2018-02-18T10:50:17.844Z,40.70
2018-02-18T10:52:45.374Z,39.90
2018-02-18T10:55:12.938Z,47.53
2018-02-18T10:57:40.589Z,45.30
2018-02-18T11:00:08.152Z,42.10
2018-02-18T11:05:29.019Z,37.97
2018-02-18T11:07:56.557Z,44.87
2018-02-18T11:10:24.106Z,42.83
2018-02-18T11:12:51.643Z,39.70
2018-02-18T11:15:20.062Z,42.03
2018-02-18T11:17:47.639Z,44.17
2018-02-18T11:20:15.196Z,39.63
2018-02-18T11:22:43.504Z,40.70
2018-02-18T11:25:11.831Z,42.17
2018-02-18T11:27:39.367Z,42.37
2018-02-18T11:30:06.930Z,46.03
2018-02-18T11:32:34.460Z,45.23
2018-02-18T11:35:02.015Z,36.77
2018-02-18T11:37:29.557Z,37.27
2018-02-18T11:40:06.104Z,38.33
2018-02-18T11:42:33.642Z,35.07
2018-02-18T11:45:01.200Z,37.93
2018-02-18T11:47:28.734Z,31.13
2018-02-18T11:49:56.313Z,40.90
2018-02-18T11:52:23.955Z,36.37
2018-02-18T11:54:51.530Z,41.13
2018-02-18T11:57:19.832Z,39.63
2018-02-18T11:59:47.384Z,39.13
2018-02-18T12:02:14.923Z,37.50
2018-02-18T12:04:43.238Z,37.30
2018-02-18T12:07:10.770Z,36.57
2018-02-18T12:09:38.328Z,35.40
2018-02-18T12:12:05.877Z,33.40
2018-02-18T12:14:34.203Z,31.23
2018-02-18T12:17:01.750Z,35.37
2018-02-18T12:19:29.319Z,30.30
2018-02-18T12:21:56.847Z,41.53
2018-02-18T12:24:24.499Z,37.03
2018-02-18T12:26:52.794Z,40.07
2018-02-18T12:29:20.360Z,41.80
2018-02-18T12:31:47.907Z,37.47
2018-02-18T12:34:15.512Z,49.67
2018-02-18T12:36:43.018Z,41.43
2018-02-18T12:39:10.575Z,38.00
2018-02-18T12:41:38.880Z,47.03
2018-02-18T12:44:06.451Z,46.40
2018-02-18T12:46:33.982Z,42.43
2018-02-18T12:49:01.546Z,40.97
2018-02-18T12:51:29.083Z,41.70
2018-02-18T12:53:57.419Z,38.40
2018-02-18T12:56:24.951Z,45.97
2018-02-18T12:58:52.488Z,45.10
2018-02-18T13:01:20.052Z,46.40
2018-02-18T13:03:47.595Z,42.00
2018-02-18T13:06:16.150Z,42.70
2018-02-18T13:08:44.227Z,46.63
2018-02-18T13:11:12.961Z,39.90
2018-02-18T13:13:41.416Z,42.40
2018-02-18T13:16:09.831Z,42.87
2018-02-18T13:18:37.471Z,36.73
2018-02-18T13:21:05.190Z,41.03
2018-02-18T13:23:32.859Z,47.37
2018-02-18T13:26:00.435Z,40.50
2018-02-18T13:28:27.967Z,41.33
2018-02-18T13:30:56.295Z,50.57
2018-02-18T13:33:24.595Z,43.60
2018-02-18T13:35:52.150Z,38.27
2018-02-18T13:38:19.682Z,39.97
2018-02-18T13:40:48.007Z,42.27
2018-02-18T13:43:15.547Z,47.20
2018-02-18T13:45:43.113Z,40.50
2018-02-18T13:48:10.641Z,43.93
2018-02-18T13:50:38.976Z,38.80
2018-02-18T13:53:06.512Z,40.33
2018-02-18T13:55:34.067Z,36.47
2018-02-18T13:58:01.602Z,31.77
2018-02-18T14:00:29.927Z,33.47
2018-02-18T14:02:57.467Z,34.83
2018-02-18T14:05:25.048Z,35.53
2018-02-18T14:07:52.581Z,31.10
2018-02-18T14:10:20.137Z,34.60
2018-02-18T14:12:47.671Z,29.20
2018-02-18T14:15:16.006Z,30.70
2018-02-18T14:17:43.552Z,29.50
2018-02-18T14:20:11.125Z,27.87
2018-02-18T14:22:38.662Z,27.83
2018-02-18T14:25:06.219Z,28.30
2018-02-18T14:27:33.763Z,33.80
2018-02-18T14:30:01.331Z,30.17
2018-02-18T14:32:28.863Z,26.80
2018-02-18T14:34:56.443Z,32.30
2018-02-18T14:37:24.044Z,25.87
2018-02-18T14:39:51.595Z,29.23
2018-02-18T14:45:38.218Z,27.10
2018-02-18T14:48:17.584Z,26.23
2018-02-18T14:50:57.112Z,27.60
2018-02-18T14:53:37.183Z,30.93
2018-02-18T14:59:15.463Z,33.73
2018-02-18T15:01:43.043Z,27.87
2018-02-18T15:04:10.574Z,26.20
2018-02-18T15:06:38.194Z,33.23
2018-02-18T15:09:05.734Z,31.20
2018-02-18T15:11:33.306Z,26.77
2018-02-18T15:14:00.840Z,34.87
2018-02-18T15:16:28.396Z,36.37
2018-02-18T15:18:55.930Z,32.77
2018-02-18T15:21:24.255Z,30.23
2018-02-18T15:23:51.792Z,31.40
2018-02-18T15:26:19.355Z,32.70
2018-02-18T15:28:46.967Z,26.63
2018-02-18T15:31:14.528Z,25.20
2018-02-18T15:33:42.107Z,31.57
2018-02-18T15:36:10.456Z,26.13
2018-02-18T15:38:37.990Z,30.70
2018-02-18T15:41:05.556Z,30.50
2018-02-18T15:43:33.159Z,30.17
2018-02-18T15:46:01.566Z,28.40
2018-02-18T15:48:29.094Z,28.27
2018-02-18T15:50:57.474Z,22.70
2018-02-18T15:53:25.812Z,29.50
2018-02-18T15:55:53.391Z,33.80
2018-02-18T15:58:20.926Z,22.63
2018-02-18T16:00:48.482Z,33.60
2018-02-18T16:03:16.041Z,25.30
2018-02-18T16:05:43.637Z,36.33
2018-02-18T16:08:11.182Z,34.83
2018-02-18T16:10:38.747Z,34.50
2018-02-18T16:13:07.047Z,26.37
2018-02-18T16:15:35.371Z,30.90
2018-02-18T16:18:02.902Z,26.70
2018-02-18T16:20:30.454Z,29.37
2018-02-18T16:22:58.748Z,33.03
2018-02-18T16:25:26.324Z,28.17
2018-02-18T16:27:53.867Z,31.40
2018-02-18T16:30:21.409Z,25.63
2018-02-18T16:32:49.734Z,28.47
2018-02-18T16:35:17.260Z,30.17
2018-02-18T16:37:44.820Z,33.53
2018-02-18T16:40:12.355Z,27.80
2018-02-18T16:42:40.687Z,26.13
2018-02-18T16:45:08.226Z,28.00
2018-02-18T16:47:35.786Z,28.23
2018-02-18T16:50:03.332Z,24.10
2018-02-18T16:52:30.889Z,30.43
2018-02-18T16:54:59.182Z,26.77
2018-02-18T16:57:26.740Z,27.80
2018-02-18T16:59:54.296Z,29.73
2018-02-18T17:02:21.858Z,28.13
2018-02-18T17:04:49.386Z,27.30
2018-02-18T17:07:16.944Z,32.70
2018-02-18T17:09:44.475Z,31.70
2018-02-18T17:12:12.035Z,32.80
2018-02-18T17:14:39.563Z,29.10
2018-02-18T17:17:07.123Z,31.63
2018-02-18T17:19:34.654Z,21.70
2018-02-18T17:22:02.974Z,30.63
2018-02-18T17:24:30.511Z,24.90
2018-02-18T17:26:58.071Z,28.80
2018-02-18T17:29:25.607Z,27.80
2018-02-18T17:31:53.936Z,33.93
2018-02-18T17:34:21.469Z,33.87
2018-02-18T17:36:49.027Z,35.20
2018-02-18T17:39:16.558Z,32.57
2018-02-18T17:41:44.887Z,26.37
2018-02-18T17:44:12.418Z,34.53
2018-02-18T17:46:40.043Z,29.30
2018-02-18T17:49:07.587Z,27.53
2018-02-18T17:51:35.228Z,25.97
2018-02-18T17:54:02.970Z,31.57
2018-02-18T17:56:31.345Z,32.83
2018-02-18T17:58:58.882Z,31.17
2018-02-18T18:01:27.211Z,30.70
2018-02-18T18:03:54.748Z,36.23
2018-02-18T18:06:22.311Z,34.40
2018-02-18T18:08:49.850Z,34.47
2018-02-18T18:11:18.183Z,34.20
2018-02-18T18:13:45.725Z,30.77
2018-02-18T18:16:13.290Z,30.73
2018-02-18T18:18:41.598Z,33.57
2018-02-18T18:21:09.163Z,30.80
2018-02-18T18:23:36.695Z,31.80
2018-02-18T18:26:04.255Z,27.67
2018-02-18T18:28:31.792Z,29.33
2018-02-18T18:30:59.345Z,37.73
2018-02-18T18:33:26.882Z,32.93
2018-02-18T18:35:55.206Z,36.83
2018-02-18T18:38:22.739Z,35.13
2018-02-18T18:40:50.307Z,34.30
2018-02-18T18:43:17.868Z,38.87
2018-02-18T18:45:45.412Z,38.30
2018-02-18T18:48:12.972Z,42.07
2018-02-18T18:50:40.507Z,34.83
2018-02-18T18:53:08.839Z,45.47
2018-02-18T18:55:36.374Z,38.33
2018-02-18T18:58:03.952Z,34.60
2018-02-18T19:00:31.523Z,40.70
2018-02-18T19:02:59.087Z,36.67
2018-02-18T19:05:26.638Z,44.93
2018-02-18T19:07:54.968Z,39.73
2018-02-18T19:10:23.284Z,33.00
2018-02-18T19:12:50.853Z,43.73
2018-02-18T19:15:18.559Z,36.88
2018-02-18T19:17:46.902Z,43.47
2018-02-18T19:20:14.437Z,48.37
2018-02-18T19:22:42.767Z,47.97
2018-02-18T19:25:10.323Z,47.00
2018-02-18T19:27:37.881Z,49.70
2018-02-18T19:30:05.439Z,42.83
2018-02-18T19:32:33.018Z,44.13
2018-02-18T19:35:01.331Z,46.80
2018-02-18T19:37:28.900Z,42.73
2018-02-18T19:39:56.441Z,43.33
2018-02-18T19:42:23.999Z,48.63
2018-02-18T19:44:51.546Z,51.65
2018-02-18T19:47:19.875Z,45.10
2018-02-18T19:49:47.411Z,49.90
2018-02-18T19:52:14.978Z,52.63
2018-02-18T19:54:42.553Z,49.03
2018-02-18T19:57:10.100Z,54.33
2018-02-18T19:59:37.638Z,49.13
2018-02-18T20:02:05.202Z,54.88
2018-02-18T20:04:32.739Z,63.90
2018-02-18T20:07:01.075Z,46.53
2018-02-18T20:09:28.627Z,62.47
2018-02-18T20:11:56.200Z,45.88
2018-02-18T20:14:23.940Z,49.50
2018-02-18T20:16:51.490Z,52.30
2018-02-18T20:19:19.027Z,52.10
2018-02-18T20:21:47.361Z,50.17
2018-02-18T20:24:14.913Z,63.87
2018-02-18T20:26:42.482Z,51.95
2018-02-18T20:29:10.035Z,49.57
2018-02-18T20:31:37.608Z,46.33
2018-02-18T20:34:05.158Z,50.35
2018-02-18T20:36:34.235Z,48.73
2018-02-18T20:39:01.788Z,45.97
2018-02-18T20:41:29.359Z,46.77
2018-02-18T20:43:56.902Z,50.30
2018-02-18T20:46:24.471Z,49.53
2018-02-18T20:48:52.017Z,37.78
2018-02-18T20:51:19.577Z,49.17
2018-02-18T20:53:47.363Z,45.15
2018-02-18T20:56:14.952Z,48.37
2018-02-18T20:58:42.520Z,44.00
2018-02-18T21:01:10.832Z,38.47
2018-02-18T21:03:38.467Z,44.20
2018-02-18T21:06:06.098Z,42.13
2018-02-18T21:08:33.671Z,39.47
2018-02-18T21:11:01.717Z,52.13
2018-02-18T21:13:30.110Z,34.53
2018-02-18T21:15:58.407Z,46.77
2018-02-18T21:18:25.983Z,40.63
2018-02-18T21:20:54.298Z,44.47
2018-02-18T21:23:21.943Z,46.03
2018-02-18T21:25:49.853Z,44.90
2018-02-18T21:28:18.236Z,38.80
2018-02-18T21:30:45.991Z,39.40
2018-02-18T21:33:14.498Z,55.53
2018-02-18T21:35:42.035Z,50.97
2018-02-18T21:38:09.650Z,44.63
2018-02-18T21:40:37.190Z,46.40
2018-02-18T21:43:05.523Z,38.05
2018-02-18T21:45:33.075Z,41.50
2018-02-18T21:48:00.639Z,47.45
2018-02-18T21:50:28.185Z,45.78
2018-02-18T21:52:55.774Z,37.65
2018-02-18T21:55:23.331Z,45.92
2018-02-18T21:57:51.668Z,37.17
2018-02-18T22:00:19.249Z,36.53
2018-02-18T22:02:46.816Z,40.38
2018-02-18T22:05:14.351Z,34.50
2018-02-18T22:07:41.913Z,46.20
2018-02-18T22:10:09.451Z,42.10
2018-02-18T22:12:37.819Z,45.10
2018-02-18T22:15:06.142Z,47.10
2018-02-18T22:17:33.875Z,40.03
2018-02-18T22:20:02.188Z,38.40
2018-02-18T22:22:29.784Z,46.88
2018-02-18T22:24:58.126Z,37.10
2018-02-18T22:27:25.687Z,43.20
2018-02-18T22:29:53.226Z,41.60
2018-02-18T22:32:20.799Z,41.22
2018-02-18T22:34:48.445Z,32.47
2018-02-18T22:37:16.010Z,35.28
2018-02-18T22:39:43.672Z,39.92
2018-02-18T22:42:11.234Z,40.40
2018-02-18T22:44:38.772Z,40.77
2018-02-18T22:47:07.108Z,39.50
2018-02-18T22:49:34.650Z,32.93
2018-02-18T22:52:02.211Z,39.53
2018-02-18T22:54:29.754Z,37.88
2018-02-18T22:56:57.356Z,36.37
2018-02-18T22:59:24.905Z,33.13
2018-02-18T23:01:52.470Z,31.00
2018-02-18T23:04:20.011Z,36.35
2018-02-18T23:06:47.547Z,33.90
2018-02-18T23:09:15.113Z,40.10
2018-02-18T23:11:42.654Z,40.47
2018-02-18T23:14:10.989Z,32.58
2018-02-18T23:16:38.529Z,48.70
2018-02-18T23:19:06.090Z,34.47
2018-02-18T23:21:33.678Z,39.23
2018-02-18T23:24:01.246Z,36.60
2018-02-18T23:26:28.793Z,38.43
2018-02-18T23:28:56.353Z,41.20
2018-02-18T23:31:24.049Z,34.92
2018-02-18T23:33:51.642Z,32.63
2018-02-18T23:36:19.393Z,34.30
2018-02-18T23:38:47.037Z,42.30
2018-02-18T23:41:15.341Z,45.80
2018-02-18T23:43:42.944Z,39.70
2018-02-18T23:46:10.502Z,36.58
2018-02-18T23:48:38.072Z,40.63
2018-02-18T23:51:05.610Z,38.47
2018-02-18T23:53:33.186Z,40.27
2018-02-18T23:56:00.817Z,35.90
2018-02-18T23:58:28.410Z,41.37
